DAL695 KBOS-KATL
Flight info
| Callsign | DAL695 |
|---|---|
| Flight time | N/A |
| Altitude | 36000 |
| Route | BLZZR6 BLZZR BAF Q448 PTW J48 MOL FLASK OZZZI2 |
| Aircraft | A320/M-SDE3FGHIRWY/LB1 |
Departure
| Time | 2026-05-07 20:43 |
|---|---|
| Airport | Boston Logan International Airport (KBOS) |
Arrival
| Time | N/A |
|---|---|
| Airport | Hartsfield Jackson Atlanta International Airport (KATL) |
| Time | Latitude | Longitude | Altitude | Speed | Heading |
|---|---|---|---|---|---|
| 2026-05-07 19:42 | 42.36484 | -71.02304 | 28 ft | 0 kts | 81° |
| 2026-05-07 20:22 | 42.36484 | -71.02307 | 44 ft | 2 kts | 81° |
| 2026-05-07 20:22 | 42.36481 | -71.02337 | 27 ft | 3 kts | 96° |
| 2026-05-07 20:22 | 42.36487 | -71.02363 | 28 ft | 3 kts | 144° |
| 2026-05-07 20:23 | 42.36497 | -71.02369 | 31 ft | 0 kts | 182° |
| 2026-05-07 20:25 | 42.36495 | -71.02369 | 25 ft | 2 kts | 182° |
| 2026-05-07 20:25 | 42.36463 | -71.02371 | 25 ft | 5 kts | 182° |
| 2026-05-07 20:26 | 42.36426 | -71.02368 | 28 ft | 5 kts | 166° |
| 2026-05-07 20:26 | 42.36402 | -71.02353 | 26 ft | 3 kts | 151° |
| 2026-05-07 20:26 | 42.36385 | -71.02342 | 28 ft | 4 kts | 158° |
| 2026-05-07 20:26 | 42.36362 | -71.02336 | 27 ft | 3 kts | 173° |
| 2026-05-07 20:27 | 42.36328 | -71.02336 | 28 ft | 5 kts | 183° |
| 2026-05-07 20:27 | 42.36297 | -71.02338 | 28 ft | 4 kts | 184° |
| 2026-05-07 20:27 | 42.36275 | -71.02340 | 27 ft | 2 kts | 184° |
| 2026-05-07 20:27 | 42.36263 | -71.02341 | 25 ft | 1 kts | 184° |
| 2026-05-07 20:28 | 42.36254 | -71.02342 | 25 ft | 4 kts | 184° |
| 2026-05-07 20:28 | 42.36218 | -71.02345 | 26 ft | 5 kts | 184° |
| 2026-05-07 20:28 | 42.36198 | -71.02347 | 27 ft | 0 kts | 184° |
| 2026-05-07 20:29 | 42.36158 | -71.02351 | 27 ft | 9 kts | 184° |
| 2026-05-07 20:29 | 42.36101 | -71.02333 | 29 ft | 8 kts | 153° |
| 2026-05-07 20:29 | 42.36059 | -71.02299 | 25 ft | 6 kts | 146° |
| 2026-05-07 20:30 | 42.36031 | -71.02255 | 25 ft | 7 kts | 120° |
| 2026-05-07 20:30 | 42.36011 | -71.02207 | 26 ft | 5 kts | 121° |
| 2026-05-07 20:30 | 42.35986 | -71.02151 | 27 ft | 12 kts | 121° |
| 2026-05-07 20:30 | 42.35943 | -71.02057 | 28 ft | 11 kts | 121° |
| 2026-05-07 20:31 | 42.35907 | -71.01977 | 25 ft | 9 kts | 121° |
| 2026-05-07 20:31 | 42.35878 | -71.01912 | 25 ft | 7 kts | 118° |
| 2026-05-07 20:31 | 42.35859 | -71.01855 | 25 ft | 6 kts | 112° |
| 2026-05-07 20:31 | 42.35844 | -71.01778 | 28 ft | 8 kts | 102° |
| 2026-05-07 20:32 | 42.35835 | -71.01707 | 29 ft | 7 kts | 91° |
| 2026-05-07 20:32 | 42.35857 | -71.01664 | 26 ft | 5 kts | 31° |
| 2026-05-07 20:32 | 42.35887 | -71.01649 | 26 ft | 7 kts | 19° |
| 2026-05-07 20:32 | 42.35941 | -71.01621 | 28 ft | 8 kts | 22° |
| 2026-05-07 20:33 | 42.35985 | -71.01600 | 25 ft | 6 kts | 18° |
| 2026-05-07 20:33 | 42.36018 | -71.01584 | 25 ft | 4 kts | 19° |
| 2026-05-07 20:33 | 42.36040 | -71.01574 | 25 ft | 3 kts | 19° |
| 2026-05-07 20:33 | 42.36066 | -71.01562 | 28 ft | 9 kts | 19° |
| 2026-05-07 20:34 | 42.36140 | -71.01527 | 25 ft | 14 kts | 19° |
| 2026-05-07 20:34 | 42.36235 | -71.01481 | 28 ft | 15 kts | 19° |
| 2026-05-07 20:34 | 42.36334 | -71.01433 | 26 ft | 12 kts | 21° |
| 2026-05-07 20:34 | 42.36364 | -71.01380 | 25 ft | 6 kts | 93° |
| 2026-05-07 20:35 | 42.36344 | -71.01332 | 29 ft | 7 kts | 123° |
| 2026-05-07 20:35 | 42.36315 | -71.01270 | 28 ft | 9 kts | 121° |
| 2026-05-07 20:35 | 42.36283 | -71.01201 | 25 ft | 10 kts | 122° |
| 2026-05-07 20:35 | 42.36249 | -71.01113 | 25 ft | 10 kts | 115° |
| 2026-05-07 20:36 | 42.36220 | -71.01027 | 25 ft | 11 kts | 115° |
| 2026-05-07 20:36 | 42.36192 | -71.00944 | 25 ft | 10 kts | 114° |
| 2026-05-07 20:36 | 42.36152 | -71.00822 | 28 ft | 15 kts | 114° |
| 2026-05-07 20:36 | 42.36115 | -71.00700 | 26 ft | 13 kts | 109° |
| 2026-05-07 20:37 | 42.36085 | -71.00582 | 27 ft | 16 kts | 109° |
| 2026-05-07 20:37 | 42.36050 | -71.00444 | 27 ft | 15 kts | 109° |
| 2026-05-07 20:37 | 42.36020 | -71.00321 | 26 ft | 13 kts | 109° |
| 2026-05-07 20:37 | 42.35991 | -71.00207 | 26 ft | 12 kts | 109° |
| 2026-05-07 20:38 | 42.35960 | -71.00106 | 25 ft | 11 kts | 118° |
| 2026-05-07 20:38 | 42.35916 | -71.00030 | 27 ft | 11 kts | 134° |
| 2026-05-07 20:38 | 42.35857 | -70.99950 | 28 ft | 17 kts | 135° |
| 2026-05-07 20:38 | 42.35764 | -70.99825 | 27 ft | 18 kts | 135° |
| 2026-05-07 20:39 | 42.35679 | -70.99712 | 25 ft | 16 kts | 135° |
| 2026-05-07 20:39 | 42.35601 | -70.99609 | 25 ft | 15 kts | 135° |
| 2026-05-07 20:39 | 42.35534 | -70.99518 | 25 ft | 13 kts | 135° |
| 2026-05-07 20:39 | 42.35495 | -70.99462 | 27 ft | 6 kts | 124° |
| 2026-05-07 20:40 | 42.35488 | -70.99417 | 25 ft | 4 kts | 87° |
| 2026-05-07 20:40 | 42.35493 | -70.99385 | 25 ft | 3 kts | 76° |
| 2026-05-07 20:40 | 42.35493 | -70.99381 | 25 ft | 0 kts | 77° |
| 2026-05-07 20:41 | 42.35498 | -70.99351 | 25 ft | 9 kts | 78° |
| 2026-05-07 20:41 | 42.35519 | -70.99284 | 27 ft | 6 kts | 43° |
| 2026-05-07 20:41 | 42.35552 | -70.99284 | 27 ft | 4 kts | 327° |
| 2026-05-07 20:41 | 42.35573 | -70.99310 | 25 ft | 0 kts | 315° |
| 2026-05-07 20:42 | 42.35575 | -70.99313 | 25 ft | 5 kts | 315° |
| 2026-05-07 20:42 | 42.35785 | -70.99594 | 27 ft | 77 kts | 315° |
| 2026-05-07 20:42 | 42.36308 | -71.00296 | 25 ft | 132 kts | 315° |
| 2026-05-07 20:42 | 42.37028 | -71.01289 | 301 ft | 151 kts | 311° |
| 2026-05-07 20:43 | 42.37766 | -71.02304 | 964 ft | 152 kts | 313° |
| 2026-05-07 20:43 | 42.38450 | -71.03388 | 1638 ft | 152 kts | 300° |
| 2026-05-07 20:43 | 42.39010 | -71.04655 | 2073 ft | 166 kts | 299° |
| 2026-05-07 20:43 | 42.39637 | -71.06098 | 2370 ft | 189 kts | 299° |
| 2026-05-07 20:44 | 42.40347 | -71.07740 | 2686 ft | 214 kts | 299° |
| 2026-05-07 20:44 | 42.41002 | -71.09664 | 3091 ft | 238 kts | 279° |
| 2026-05-07 20:44 | 42.40803 | -71.11930 | 3724 ft | 251 kts | 255° |
| 2026-05-07 20:44 | 42.40236 | -71.14170 | 4622 ft | 253 kts | 251° |
| 2026-05-07 20:45 | 42.39603 | -71.16419 | 5449 ft | 257 kts | 251° |
| 2026-05-07 20:45 | 42.38947 | -71.18684 | 6303 ft | 260 kts | 250° |
| 2026-05-07 20:45 | 42.38289 | -71.20974 | 7126 ft | 262 kts | 251° |
| 2026-05-07 20:45 | 42.37639 | -71.23269 | 8015 ft | 261 kts | 252° |
| 2026-05-07 20:46 | 42.37000 | -71.25551 | 8936 ft | 259 kts | 252° |
| 2026-05-07 20:46 | 42.36369 | -71.27824 | 9824 ft | 257 kts | 253° |
| 2026-05-07 20:46 | 42.35740 | -71.30112 | 10416 ft | 267 kts | 252° |
| 2026-05-07 20:46 | 42.35079 | -71.32536 | 10581 ft | 290 kts | 252° |
| 2026-05-07 20:47 | 42.34364 | -71.35151 | 11003 ft | 301 kts | 252° |
| 2026-05-07 20:47 | 42.33595 | -71.37803 | 11723 ft | 304 kts | 250° |
| 2026-05-07 20:47 | 42.32787 | -71.40438 | 12531 ft | 303 kts | 249° |
| 2026-05-07 20:47 | 42.31968 | -71.43054 | 13335 ft | 302 kts | 248° |
| 2026-05-07 20:48 | 42.31147 | -71.45664 | 14077 ft | 301 kts | 248° |
| 2026-05-07 20:48 | 42.30332 | -71.48270 | 14759 ft | 300 kts | 248° |
| 2026-05-07 20:48 | 42.29523 | -71.50876 | 15414 ft | 301 kts | 248° |
| 2026-05-07 20:48 | 42.28712 | -71.53493 | 16042 ft | 303 kts | 247° |
| 2026-05-07 20:49 | 42.27896 | -71.56132 | 16664 ft | 306 kts | 247° |
| 2026-05-07 20:49 | 42.27074 | -71.58793 | 17236 ft | 308 kts | 247° |
| 2026-05-07 20:49 | 42.26245 | -71.61469 | 17837 ft | 310 kts | 246° |
| 2026-05-07 20:49 | 42.25409 | -71.64170 | 18389 ft | 312 kts | 246° |
| 2026-05-07 20:50 | 42.24569 | -71.66874 | 18936 ft | 313 kts | 246° |
| 2026-05-07 20:50 | 42.23725 | -71.69587 | 19504 ft | 314 kts | 246° |
| 2026-05-07 20:50 | 42.22880 | -71.72304 | 20077 ft | 314 kts | 246° |
| 2026-05-07 20:50 | 42.22066 | -71.75044 | 20636 ft | 316 kts | 250° |
| 2026-05-07 20:51 | 42.21619 | -71.77958 | 21177 ft | 321 kts | 261° |
| 2026-05-07 20:51 | 42.21458 | -71.80966 | 21713 ft | 322 kts | 261° |
| 2026-05-07 20:51 | 42.21302 | -71.83941 | 22229 ft | 323 kts | 261° |
| 2026-05-07 20:51 | 42.21140 | -71.86969 | 22739 ft | 324 kts | 261° |
| 2026-05-07 20:52 | 42.20975 | -71.90001 | 23224 ft | 325 kts | 261° |
| 2026-05-07 20:52 | 42.20806 | -71.93052 | 23632 ft | 328 kts | 261° |
| 2026-05-07 20:52 | 42.20634 | -71.96132 | 23954 ft | 331 kts | 261° |
| 2026-05-07 20:52 | 42.20463 | -71.99229 | 24337 ft | 332 kts | 261° |
| 2026-05-07 20:53 | 42.20291 | -72.02336 | 24714 ft | 333 kts | 260° |
| 2026-05-07 20:53 | 42.20117 | -72.05447 | 25079 ft | 333 kts | 260° |
| 2026-05-07 20:53 | 42.19942 | -72.08559 | 25471 ft | 333 kts | 260° |
| 2026-05-07 20:53 | 42.19766 | -72.11674 | 25836 ft | 334 kts | 260° |
| 2026-05-07 20:54 | 42.19586 | -72.14797 | 26198 ft | 334 kts | 259° |
| 2026-05-07 20:54 | 42.19402 | -72.17927 | 26554 ft | 335 kts | 259° |
| 2026-05-07 20:54 | 42.19219 | -72.21066 | 26903 ft | 336 kts | 259° |
| 2026-05-07 20:54 | 42.19039 | -72.24214 | 27245 ft | 337 kts | 259° |
| 2026-05-07 20:55 | 42.18858 | -72.27374 | 27586 ft | 340 kts | 260° |
| 2026-05-07 20:55 | 42.18672 | -72.30561 | 27839 ft | 343 kts | 259° |
| 2026-05-07 20:55 | 42.18482 | -72.33773 | 28123 ft | 344 kts | 259° |
| 2026-05-07 20:55 | 42.18291 | -72.36993 | 28428 ft | 346 kts | 259° |
| 2026-05-07 20:56 | 42.18099 | -72.40231 | 28714 ft | 347 kts | 259° |
| 2026-05-07 20:56 | 42.17906 | -72.43478 | 28971 ft | 348 kts | 259° |
| 2026-05-07 20:56 | 42.17713 | -72.46737 | 29273 ft | 349 kts | 259° |
| 2026-05-07 20:56 | 42.17517 | -72.50002 | 29545 ft | 350 kts | 259° |
| 2026-05-07 20:57 | 42.17318 | -72.53277 | 29802 ft | 351 kts | 259° |
| 2026-05-07 20:57 | 42.17120 | -72.56562 | 30026 ft | 352 kts | 259° |
| 2026-05-07 20:57 | 42.16920 | -72.59860 | 30225 ft | 353 kts | 259° |
| 2026-05-07 20:57 | 42.16717 | -72.63169 | 30432 ft | 356 kts | 260° |
| 2026-05-07 20:58 | 42.16512 | -72.66503 | 30576 ft | 358 kts | 260° |
| 2026-05-07 20:58 | 42.16117 | -72.69750 | 30778 ft | 354 kts | 251° |
| 2026-05-07 20:58 | 42.15212 | -72.72858 | 31023 ft | 352 kts | 242° |
| 2026-05-07 20:58 | 42.13873 | -72.75611 | 31282 ft | 352 kts | 234° |
| 2026-05-07 20:59 | 42.12381 | -72.78164 | 31537 ft | 351 kts | 234° |
| 2026-05-07 20:59 | 42.10872 | -72.80739 | 31808 ft | 348 kts | 234° |
| 2026-05-07 20:59 | 42.09380 | -72.83286 | 32175 ft | 345 kts | 234° |
| 2026-05-07 20:59 | 42.07901 | -72.85811 | 32501 ft | 343 kts | 234° |
| 2026-05-07 21:00 | 42.06426 | -72.88328 | 32764 ft | 342 kts | 234° |
| 2026-05-07 21:00 | 42.04955 | -72.90839 | 33011 ft | 341 kts | 234° |
| 2026-05-07 21:00 | 42.03487 | -72.93340 | 33299 ft | 340 kts | 234° |
| 2026-05-07 21:00 | 42.02024 | -72.95832 | 33592 ft | 340 kts | 234° |
| 2026-05-07 21:01 | 42.00554 | -72.98339 | 33733 ft | 343 kts | 234° |
| 2026-05-07 21:01 | 41.99069 | -73.00869 | 33867 ft | 346 kts | 234° |
| 2026-05-07 21:01 | 41.97567 | -73.03415 | 33985 ft | 349 kts | 234° |
| 2026-05-07 21:02 | 41.94106 | -73.08023 | 34307 ft | 355 kts | 219° |
| 2026-05-07 21:02 | 41.92013 | -73.09795 | 34575 ft | 355 kts | 219° |
| 2026-05-07 21:02 | 41.89922 | -73.11546 | 34784 ft | 354 kts | 219° |
| 2026-05-07 21:02 | 41.87834 | -73.13299 | 34960 ft | 354 kts | 219° |
| 2026-05-07 21:03 | 41.85749 | -73.15058 | 35136 ft | 354 kts | 219° |
| 2026-05-07 21:03 | 41.83662 | -73.16815 | 35290 ft | 354 kts | 219° |
| 2026-05-07 21:03 | 41.81601 | -73.18546 | 35441 ft | 354 kts | 219° |
| 2026-05-07 21:03 | 41.79511 | -73.20299 | 35586 ft | 354 kts | 219° |
| 2026-05-07 21:04 | 41.77421 | -73.22049 | 35708 ft | 353 kts | 219° |
| 2026-05-07 21:04 | 41.75342 | -73.23788 | 35834 ft | 351 kts | 219° |
| 2026-05-07 21:04 | 41.73273 | -73.25514 | 35866 ft | 350 kts | 219° |
| 2026-05-07 21:05 | 41.69150 | -73.28944 | 35868 ft | 349 kts | 219° |
| 2026-05-07 21:05 | 41.65224 | -73.32698 | 35870 ft | 345 kts | 230° |
| 2026-05-07 21:06 | 41.62592 | -73.36711 | 35875 ft | 346 kts | 232° |
| 2026-05-07 21:06 | 41.59437 | -73.41580 | 35866 ft | 347 kts | 232° |
| 2026-05-07 21:07 | 41.56269 | -73.46440 | 35858 ft | 347 kts | 232° |
| 2026-05-07 21:07 | 41.53093 | -73.51304 | 35855 ft | 347 kts | 232° |
| 2026-05-07 21:08 | 41.49924 | -73.56174 | 35851 ft | 348 kts | 232° |